AirNav   Pilot Hours Calculator
 
 1408 users online  

UT60 Peoa Private Heliport
Peoa, Utah, USA


FAA INFORMATION EFFECTIVE 02 DECEMBER 2021

Location

FAA Identifier: UT60
Lat/Long: 40-44-13.1300N 111-21-25.8300W
40-44.218833N 111-21.430500W
40.7369806,-111.3571750
(estimated)
Elevation: 6121 ft. / 1866 m (estimated)
From city: 1 mile NW of PEOA, UT
Time zone: UTC -7 (UTC -6 during Daylight Saving Time)
Zip code: 84061

Heliport Operations

Heliport use: Private use. Permission required prior to landing
Activation date: 12/2020
Control tower: no
ARTCC: SALT LAKE CITY CENTER
FSS: CEDAR CITY FLIGHT SERVICE STATION
Attendance: 
Wind indicator: no
Segmented circle: no

Heliport Communications

CTAF: 122.9
WX AWOS-3PT at HCR (16 nm S): 124.825 (435-657-0892)

Nearby radio navigation aids

VOR radial/distance  VOR name  Freq  Var
TCHr087/29.2WASATCH VORTAC116.8016E
EVWr191/35.1EVANSTON VOR/DME109.6013E
PVUr013/35.5PROVO VOR/DME108.4015E
FFUr028/38.4FAIRFIELD VORTAC116.6016E

Heliport Services

Airframe service: NONE
Powerplant service: NONE
Bottled oxygen: NONE
Bulk oxygen: NONE

Runway Information

Helipad H1

Dimensions: 40 x 40 ft. / 12 x 12 m
Surface: mats, in good condition
Latitude: 40-44.218833N
Longitude: 111-21.430500W
Elevation: 6121.0 ft.
Traffic pattern: leftleft

Heliport Ownership and Management from official FAA records

Ownership: Privately-owned
Owner: DRD AVIATION, LLC
PO BOX 2413
PARK CITY, UT 84060
Phone 435-640-8342
Manager: DRD AVIATION, LLC
PO BOX 2413
PARK CITY, UT 84060
Phone 435-640-8342

Heliport Operational Statistics

Aircraft based on the field: 1
Helicopters: 1
    

Additional Remarks

CHARTING REQUESTED IN ASP ANALYSIS.
TLOF LENGTH 40 FT, WIDTH 40 FT. FATO LENGTH 70 FT, WIDTH 280 FT. INGRESS/EGRESS: 070/250 DEGREES. ELEV HT OF SFC: 1 FT.

Instrument Procedures

There are no published instrument procedures at UT60.

Some nearby airports with instrument procedures:

KHCR - Heber Valley Airport (16 nm S)
KSLC - Salt Lake City International Airport (28 nm W)
U42 - South Valley Regional Airport (30 nm W)
KPVU - Provo Municipal Airport (35 nm SW)
KEVW - Evanston-Uinta County Airport - Burns Field (35 nm NE)
 
Loc | Ops | Rwys | IFR | FBO | Links
Com | Nav | Svcs | Stats | Notes
Aerial photo
No photo
 
Airport distance calculator
Flying to Peoa Private Heliport? Find the distance to fly.

From to UT60

Sunrise and sunset
Times for 07-Dec-2021
 Local
(UTC-7)
 Zulu
(UTC)
Morning civil twilight07:0614:06
Sunrise07:3714:37
Sunset16:5723:57
Evening civil twilight17:2800:28

Current date and time
Zulu (UTC)  07-Dec-2021 17:57:49
Local (UTC-7)  07-Dec-2021 10:57:49
 
METAR
KHCR 
16nm S 
071735Z AUTO 29005KT 10SM BKN070 05/M05 A3008 RMK AO2
KSLC 
28nm W 
071754Z 00000KT 10SM FEW065 BKN080 07/M03 A3011 RMK AO2 SLP191 T00671028 10072 20006 51023
KU42 
30nm W 
071735Z AUTO 00000KT 10SM SCT065 SCT080 06/M02 A3011 RMK AO1 T00591020
TAF
KHCR 
16nm S 
071120Z 0712/0812 VRB03KT P6SM BKN050 FM072100 VRB03KT P6SM FEW080
NOTAMs
Click for the latest NOTAMs
NOTAMs are issued by the DoD/FAA and will open in a separate window not controlled by AirNav.

 

 
 

Would you like to see your business listed on this page?

 If your business provides an interesting product or service to pilots, flight crews, aircraft, or users of the Peoa Private Heliport, you should consider listing it here.  To start the listing process, click on the button below
 
Add a business
 

Other Pages about Peoa Private Heliport

Update a link
 
Copyright © AirNav, LLC. All rights reserved. Privacy Policy  Contact